OINR  Ramsar  Airport

Iran

Add Bookmark
ICAO OINR
IATA RZR
Type Airport
Status Operational
Latitude
36° 54' 35" N
36.909901
Longitude
50° 40' 46" E
50.679600
Local (DST + 5) UTC (GMT + 4)
May 23, 2015 08:41 May 23, 2015 04:11
Sunrise-Sunset Local UTC
Begin Civil Twilight 05:22 00:52
Sunrise 05:52 01:22
Sunset 08:15 15:45
End Civil Twilight 08:45 16:15
VFR
VFR
MVFR
MVFR
IFR
VFR
LIFR
VFR
Unknown
Unavailable

Current Weather

METAR Observed VFR
OINR 230300Z 00000KT 9999 FEW027CB SCT030 OVC090 20/16 Q1016 Sat, May 23, 2015 @ 03:00 UTC
(1 Hour, 11 Minutes ago)
Visual Flight Rules
Wind Visibility Clouds Conditions
Calm 10 km or more
  • Few at 2,700 ft AGL
  • Scattered at 3,000 ft AGL
  • Overcast at 9,000 ft AGL
  • No significant weather
Temperatures Readings Precipitation
Current Temp
20°C
68°F
Dewpoint
16°C
61°F
Humidity 78%
Altimeter 30" Hg
Sea Level Pressure 1,016 mb
None Recorded

Additional weather within a 92.6km radius of OINR

Map ICAO Location
OINN 75km E/SE (111°)
VFR
VFR
MVFR
MVFR
IFR
VFR
LIFR
VFR
Unknown
Unavailable
-
-

CheckWX.com is intended as a tool to help pilots better visualize weather data. It is not intended as a substitute for an official weather briefing obtained from a Flight Service Station. CheckWX.com does not meet the FAA requirements for an official pre-flight weather briefing. Therefore, it's important that pilots still call and obtain an official FSS pre-flight weather briefing.

© 2007-2015 CheckWX.com
04:11:43 UTC